createdAt,value
2022-10-02T00:07:47.583Z,11.09
2022-10-02T00:27:50.851Z,11.38
2022-10-02T00:47:53.322Z,11.42
2022-10-02T01:07:55.921Z,11.48
2022-10-02T01:27:58.462Z,11.34
2022-10-02T01:48:00.878Z,11.48
2022-10-02T02:08:03.534Z,11.37
2022-10-02T02:28:06.353Z,11.63
2022-10-02T02:48:08.849Z,11.61
2022-10-02T03:08:11.393Z,11.64
2022-10-02T03:28:14.048Z,11.37
2022-10-02T03:48:16.511Z,11.69
2022-10-02T04:08:19.007Z,11.91
2022-10-02T04:28:21.658Z,12.04
2022-10-02T04:48:24.425Z,12.04
2022-10-02T05:08:26.937Z,12.02
2022-10-02T05:28:29.540Z,12.00
2022-10-02T05:48:32.059Z,12.12
2022-10-02T06:08:34.555Z,12.11
2022-10-02T06:28:37.051Z,12.45
2022-10-02T06:48:39.683Z,12.87
2022-10-02T07:08:42.798Z,13.12
2022-10-02T07:28:45.385Z,13.59
2022-10-02T07:48:47.808Z,14.24
2022-10-02T08:08:50.705Z,15.01
2022-10-02T08:28:53.308Z,14.97
2022-10-02T08:48:56.512Z,15.08
2022-10-02T09:08:59.262Z,15.34
2022-10-02T09:29:02.027Z,15.42
2022-10-02T09:49:04.502Z,16.39
2022-10-02T10:09:07.311Z,16.31
2022-10-02T10:29:10.358Z,16.48
2022-10-02T10:49:13.219Z,15.79
2022-10-02T11:09:15.816Z,16.28
2022-10-02T11:29:18.310Z,16.54
2022-10-02T11:49:27.483Z,15.76
2022-10-02T12:09:29.918Z,16.72
2022-10-02T12:29:32.317Z,16.20
2022-10-02T12:49:35.342Z,18.25
2022-10-02T13:09:37.787Z,17.89
2022-10-02T13:29:44.036Z,17.04
2022-10-02T13:49:46.897Z,15.92
2022-10-02T14:09:49.278Z,15.07
2022-10-02T14:29:51.703Z,15.72
2022-10-02T14:49:54.361Z,16.01
2022-10-02T15:09:57.140Z,13.89
2022-10-02T15:29:59.553Z,14.28
2022-10-02T15:50:01.959Z,12.04
2022-10-02T16:10:07.441Z,11.23
2022-10-02T16:30:12.407Z,11.56
2022-10-02T16:50:17.986Z,11.84
2022-10-02T17:10:20.423Z,11.99
2022-10-02T17:30:25.244Z,11.99
2022-10-02T17:50:28.151Z,11.64
2022-10-02T18:10:32.846Z,11.74
2022-10-02T18:30:35.274Z,11.70
2022-10-02T18:50:40.727Z,10.24
2022-10-02T19:10:44.142Z,10.55
2022-10-02T19:30:46.578Z,10.47
2022-10-02T19:50:48.990Z,10.17
2022-10-02T20:10:51.509Z,10.20
2022-10-02T20:30:53.928Z,9.70
2022-10-02T20:50:56.335Z,9.35
2022-10-02T21:10:59.958Z,9.29
2022-10-02T21:31:02.769Z,9.36
2022-10-02T21:51:05.795Z,9.80
2022-10-02T22:11:13.479Z,10.19
2022-10-02T22:31:16.044Z,10.10
2022-10-02T22:51:18.481Z,9.73
2022-10-02T23:11:20.964Z,9.59
2022-10-02T23:31:24.046Z,9.51
2022-10-02T23:51:26.497Z,9.90
